createdAt,value
2017-07-29T00:00:39.014Z,19.01
2017-07-29T00:03:06.604Z,18.87
2017-07-29T00:05:34.300Z,18.75
2017-07-29T00:08:01.923Z,18.66
2017-07-29T00:10:29.528Z,18.58
2017-07-29T00:12:57.217Z,18.48
2017-07-29T00:15:24.856Z,18.54
2017-07-29T00:17:52.459Z,18.56
2017-07-29T00:20:20.152Z,18.64
2017-07-29T00:22:47.765Z,18.68
2017-07-29T00:25:15.394Z,18.64
2017-07-29T00:27:43.057Z,18.58
2017-07-29T00:30:10.729Z,18.58
2017-07-29T00:32:38.338Z,18.57
2017-07-29T00:35:06.025Z,18.60
2017-07-29T00:37:33.625Z,18.58
2017-07-29T00:40:01.222Z,18.53
2017-07-29T00:42:28.893Z,18.47
2017-07-29T00:44:56.509Z,18.41
2017-07-29T00:47:24.131Z,18.38
2017-07-29T00:49:51.801Z,18.34
2017-07-29T00:52:19.416Z,18.25
2017-07-29T00:54:47.025Z,18.22
2017-07-29T00:57:14.701Z,18.21
2017-07-29T00:59:42.313Z,18.20
2017-07-29T01:02:09.938Z,18.16
2017-07-29T01:04:37.608Z,18.19
2017-07-29T01:07:05.223Z,18.19
2017-07-29T01:09:32.839Z,18.08
2017-07-29T01:12:00.506Z,17.98
2017-07-29T01:14:28.141Z,17.95
2017-07-29T01:16:55.753Z,17.88
2017-07-29T01:19:23.402Z,17.83
2017-07-29T01:21:51.001Z,17.80
2017-07-29T01:24:18.618Z,17.87
2017-07-29T01:26:46.281Z,17.94
2017-07-29T01:29:13.895Z,18.05
2017-07-29T01:31:41.717Z,17.96
2017-07-29T01:34:09.402Z,17.88
2017-07-29T01:36:37.018Z,17.83
2017-07-29T01:39:04.704Z,17.82
2017-07-29T01:41:32.385Z,17.76
2017-07-29T01:44:00.026Z,17.67
2017-07-29T01:46:27.680Z,17.68
2017-07-29T01:48:55.361Z,17.63
2017-07-29T01:51:23.971Z,17.56
2017-07-29T01:53:51.812Z,17.51
2017-07-29T01:56:19.880Z,17.45
2017-07-29T01:58:47.625Z,17.41
2017-07-29T02:01:15.615Z,17.39
2017-07-29T02:03:43.658Z,17.34
2017-07-29T02:06:11.572Z,17.35
2017-07-29T02:08:39.240Z,17.27
2017-07-29T02:11:06.929Z,17.29
2017-07-29T02:13:34.561Z,17.27
2017-07-29T02:16:02.221Z,17.17
2017-07-29T02:18:30.116Z,17.15
2017-07-29T02:20:57.745Z,17.13
2017-07-29T02:23:25.356Z,17.11
2017-07-29T02:25:53.017Z,17.24
2017-07-29T02:28:20.639Z,17.24
2017-07-29T02:30:48.261Z,17.25
2017-07-29T02:33:15.972Z,17.25
2017-07-29T02:35:43.607Z,17.21
2017-07-29T02:38:11.235Z,17.22
2017-07-29T02:40:38.928Z,17.23
2017-07-29T02:43:06.557Z,17.21
2017-07-29T02:45:34.184Z,17.22
2017-07-29T02:48:01.875Z,17.22
2017-07-29T02:50:29.489Z,17.14
2017-07-29T02:52:57.107Z,17.09
2017-07-29T02:55:24.791Z,17.09
2017-07-29T02:57:52.405Z,17.08
2017-07-29T03:00:20.030Z,17.09
2017-07-29T03:02:47.715Z,17.11
2017-07-29T03:05:15.340Z,17.15
2017-07-29T03:07:42.958Z,17.17
2017-07-29T03:10:10.648Z,17.19
2017-07-29T03:12:38.261Z,17.17
2017-07-29T03:15:05.878Z,17.17
2017-07-29T03:17:33.554Z,17.22
2017-07-29T03:20:01.230Z,17.28
2017-07-29T03:22:28.856Z,17.29
2017-07-29T03:24:57.277Z,17.37
2017-07-29T03:27:24.907Z,17.39
2017-07-29T03:29:52.537Z,17.37
2017-07-29T03:32:20.229Z,17.42
2017-07-29T03:34:47.850Z,17.36
2017-07-29T03:37:15.469Z,17.39
2017-07-29T03:39:43.537Z,17.35
2017-07-29T03:42:11.245Z,17.38
2017-07-29T03:44:38.930Z,17.54
2017-07-29T03:47:06.590Z,17.62
2017-07-29T03:49:34.203Z,17.73
2017-07-29T03:52:01.835Z,18.74
2017-07-29T03:54:29.494Z,20.91
2017-07-29T03:56:57.098Z,22.73
2017-07-29T03:59:24.720Z,24.85
2017-07-29T04:01:52.379Z,26.82
2017-07-29T04:04:20.000Z,28.25
2017-07-29T04:06:47.637Z,29.64
2017-07-29T04:09:15.432Z,30.67
2017-07-29T04:11:43.059Z,31.00
2017-07-29T04:14:10.675Z,31.51
2017-07-29T04:16:38.777Z,31.93
2017-07-29T04:19:06.389Z,31.74
2017-07-29T04:21:34.028Z,32.05
2017-07-29T04:24:01.695Z,32.52
2017-07-29T04:26:29.304Z,31.98
2017-07-29T04:28:56.927Z,30.70
2017-07-29T04:31:24.593Z,29.73
2017-07-29T04:33:52.210Z,29.51
2017-07-29T04:36:19.832Z,29.61
2017-07-29T04:38:47.515Z,30.03
2017-07-29T04:41:15.110Z,30.12
2017-07-29T04:43:42.721Z,30.50
2017-07-29T04:46:10.410Z,31.43
2017-07-29T04:48:38.029Z,32.61
2017-07-29T04:51:05.653Z,32.68
2017-07-29T04:53:33.324Z,33.55
2017-07-29T04:56:00.953Z,34.47
2017-07-29T04:58:28.584Z,35.83
2017-07-29T05:00:56.235Z,36.42
2017-07-29T05:03:23.864Z,37.32
2017-07-29T05:05:51.484Z,37.67
2017-07-29T05:08:19.160Z,37.85
2017-07-29T05:10:46.783Z,37.91
2017-07-29T05:13:14.406Z,38.24
2017-07-29T05:15:42.092Z,39.09
2017-07-29T05:18:09.700Z,39.92
2017-07-29T05:20:37.310Z,39.44
2017-07-29T05:23:05.008Z,39.02
2017-07-29T05:25:32.624Z,39.13
2017-07-29T05:28:00.281Z,40.07
2017-07-29T05:30:27.944Z,40.97
2017-07-29T05:32:55.608Z,41.25
2017-07-29T05:35:23.212Z,41.38
2017-07-29T05:37:50.903Z,41.41
2017-07-29T05:40:18.505Z,42.14
2017-07-29T05:42:46.115Z,42.02
2017-07-29T05:45:13.818Z,43.36
2017-07-29T05:47:41.439Z,43.69
2017-07-29T05:50:09.061Z,44.30
2017-07-29T05:52:36.776Z,44.70
2017-07-29T05:55:04.373Z,45.56
2017-07-29T05:57:31.993Z,45.52
2017-07-29T05:59:59.665Z,44.12
2017-07-29T06:02:27.352Z,44.04
2017-07-29T06:04:54.985Z,42.78
2017-07-29T06:07:22.662Z,42.44
2017-07-29T06:09:50.283Z,42.65
2017-07-29T06:12:17.979Z,41.28
2017-07-29T06:14:45.633Z,41.51
2017-07-29T06:17:13.247Z,41.04
2017-07-29T06:19:40.859Z,41.01
2017-07-29T06:22:08.537Z,41.49
2017-07-29T06:24:36.177Z,41.58
2017-07-29T06:27:03.823Z,41.31
2017-07-29T06:29:31.501Z,40.37
2017-07-29T06:31:59.163Z,40.09
2017-07-29T06:34:26.762Z,40.47
2017-07-29T06:36:54.518Z,39.15
2017-07-29T06:39:22.136Z,39.35
2017-07-29T06:41:49.748Z,39.65
2017-07-29T06:44:17.499Z,38.96
2017-07-29T06:46:45.195Z,39.83
2017-07-29T06:49:12.818Z,39.73
2017-07-29T06:51:40.481Z,39.89
2017-07-29T06:54:08.093Z,40.34
2017-07-29T06:56:35.705Z,39.75
2017-07-29T06:59:03.391Z,39.43
2017-07-29T07:01:31.002Z,39.02
2017-07-29T07:03:58.617Z,39.21
2017-07-29T07:06:26.288Z,39.29
2017-07-29T07:08:53.892Z,38.97
2017-07-29T07:11:21.665Z,39.90
2017-07-29T07:13:49.332Z,39.94
2017-07-29T07:16:16.983Z,39.71
2017-07-29T07:18:44.609Z,38.51
2017-07-29T07:21:12.330Z,37.72
2017-07-29T07:23:39.972Z,37.90
2017-07-29T07:26:07.620Z,39.15
2017-07-29T07:28:35.388Z,39.10
2017-07-29T07:31:03.004Z,39.30
2017-07-29T07:33:30.601Z,39.01
2017-07-29T07:35:58.263Z,38.43
2017-07-29T07:38:25.949Z,39.14
2017-07-29T07:40:53.572Z,38.89
2017-07-29T07:43:21.244Z,38.25
2017-07-29T07:45:48.863Z,38.89
2017-07-29T07:48:16.586Z,38.28
2017-07-29T07:50:44.249Z,38.24
2017-07-29T07:53:11.861Z,38.67
2017-07-29T07:55:39.468Z,39.62
2017-07-29T07:58:07.144Z,38.62
2017-07-29T08:00:34.916Z,39.77
2017-07-29T08:03:02.580Z,39.08
2017-07-29T08:05:30.242Z,39.17
2017-07-29T08:07:57.856Z,39.68
2017-07-29T08:10:25.490Z,39.17
2017-07-29T08:12:53.434Z,39.44
2017-07-29T08:15:21.202Z,39.37
2017-07-29T08:17:48.962Z,38.33
2017-07-29T08:20:16.640Z,38.09
2017-07-29T08:22:44.239Z,38.25
2017-07-29T08:25:11.863Z,38.83
2017-07-29T08:27:39.587Z,38.92
2017-07-29T08:30:07.211Z,39.00
2017-07-29T08:32:34.819Z,38.92
2017-07-29T08:35:02.598Z,39.13
2017-07-29T08:37:30.186Z,39.33
2017-07-29T08:39:58.127Z,37.74
2017-07-29T08:42:26.067Z,38.63
2017-07-29T08:44:53.866Z,38.93
2017-07-29T08:47:21.703Z,39.02
2017-07-29T08:49:49.406Z,39.63
2017-07-29T08:52:17.075Z,40.04
2017-07-29T08:54:44.756Z,39.47
2017-07-29T08:57:12.432Z,39.25
2017-07-29T08:59:40.239Z,39.06
2017-07-29T09:02:07.912Z,39.03
2017-07-29T09:04:35.922Z,38.87
2017-07-29T09:07:04.046Z,38.83
2017-07-29T09:09:31.713Z,38.71
2017-07-29T09:11:59.702Z,38.76
2017-07-29T09:14:27.651Z,38.72
2017-07-29T09:16:55.406Z,38.56
2017-07-29T09:19:23.228Z,38.74
2017-07-29T09:21:51.093Z,38.73
2017-07-29T09:24:19.116Z,38.59
2017-07-29T09:26:46.851Z,37.86
2017-07-29T09:29:14.883Z,36.05
2017-07-29T09:31:42.513Z,36.33
2017-07-29T09:34:10.379Z,36.70
2017-07-29T09:36:38.243Z,38.27
2017-07-29T09:39:05.837Z,38.56
2017-07-29T09:41:33.517Z,37.07
2017-07-29T09:44:01.123Z,37.17
2017-07-29T09:46:28.721Z,37.62
2017-07-29T09:48:56.403Z,36.67
2017-07-29T09:51:24.027Z,35.50
2017-07-29T09:53:51.626Z,36.73
2017-07-29T09:56:19.295Z,36.48
2017-07-29T09:58:46.924Z,37.93
2017-07-29T10:01:14.522Z,38.07
2017-07-29T10:03:42.182Z,39.23
2017-07-29T10:06:09.799Z,39.10
2017-07-29T10:08:37.438Z,39.07
2017-07-29T10:11:05.111Z,38.76
2017-07-29T10:13:32.715Z,37.94
2017-07-29T10:16:00.326Z,37.27
2017-07-29T10:18:27.994Z,36.96
2017-07-29T10:20:55.639Z,37.20
2017-07-29T10:23:27.225Z,37.59
2017-07-29T10:25:54.836Z,37.10
2017-07-29T10:28:22.420Z,38.02
2017-07-29T10:30:50.076Z,38.50
2017-07-29T10:33:17.711Z,38.52
2017-07-29T10:35:45.309Z,39.12
2017-07-29T10:38:12.970Z,37.63
2017-07-29T10:40:40.570Z,38.47
2017-07-29T10:43:08.204Z,36.37
2017-07-29T10:45:35.955Z,36.72
2017-07-29T10:48:03.559Z,37.63
2017-07-29T10:50:31.191Z,36.88
2017-07-29T10:52:58.874Z,37.20
2017-07-29T10:55:26.468Z,37.98
2017-07-29T10:57:54.097Z,38.00
2017-07-29T11:00:21.773Z,38.34
2017-07-29T11:02:49.392Z,38.31
2017-07-29T11:05:17.005Z,39.03
2017-07-29T11:07:44.657Z,37.37
2017-07-29T11:10:12.271Z,38.19
2017-07-29T11:12:39.866Z,38.18
2017-07-29T11:15:07.596Z,37.67
2017-07-29T11:17:35.201Z,37.98
2017-07-29T11:20:02.817Z,37.90
2017-07-29T11:22:30.493Z,37.40
2017-07-29T11:24:58.108Z,38.58
2017-07-29T11:27:25.710Z,38.81
2017-07-29T11:29:53.403Z,38.84
2017-07-29T11:32:21.041Z,38.29
2017-07-29T11:34:48.646Z,38.17
2017-07-29T11:37:16.302Z,37.92
2017-07-29T11:39:43.906Z,37.44
2017-07-29T11:42:11.702Z,38.15
2017-07-29T11:44:39.461Z,37.74
2017-07-29T11:47:07.066Z,38.25
2017-07-29T11:49:34.669Z,37.68
2017-07-29T11:52:02.391Z,37.43
2017-07-29T11:54:30.007Z,38.64
2017-07-29T11:56:57.733Z,38.03
2017-07-29T11:59:25.402Z,37.69
2017-07-29T12:01:53.015Z,38.17
2017-07-29T12:04:20.688Z,38.32
2017-07-29T12:06:48.274Z,38.51
2017-07-29T12:09:15.878Z,37.00
2017-07-29T12:11:43.559Z,36.28
2017-07-29T12:14:11.156Z,36.19
2017-07-29T12:16:38.772Z,36.35
2017-07-29T12:19:06.426Z,36.43
2017-07-29T12:21:34.033Z,36.18
2017-07-29T12:24:01.726Z,36.40
2017-07-29T12:26:29.385Z,37.10
2017-07-29T12:28:56.995Z,37.15
2017-07-29T12:31:24.594Z,36.57
2017-07-29T12:33:52.272Z,36.45
2017-07-29T12:36:19.894Z,36.84
2017-07-29T12:38:47.488Z,36.98
2017-07-29T12:41:15.151Z,36.32
2017-07-29T12:43:42.863Z,37.62
2017-07-29T12:46:10.454Z,38.24
2017-07-29T12:48:38.128Z,35.78
2017-07-29T12:51:05.802Z,35.60
2017-07-29T12:53:33.445Z,35.39
2017-07-29T12:56:01.260Z,35.26
2017-07-29T12:58:28.881Z,34.66
2017-07-29T13:00:56.556Z,33.88
2017-07-29T13:03:24.624Z,33.57
2017-07-29T13:05:52.283Z,33.55
2017-07-29T13:08:19.943Z,33.48
2017-07-29T13:10:47.805Z,33.40
2017-07-29T13:13:15.581Z,33.68
2017-07-29T13:15:43.657Z,34.00
2017-07-29T13:18:11.960Z,33.92
2017-07-29T13:20:39.832Z,33.58
2017-07-29T13:23:07.766Z,33.06
2017-07-29T13:25:35.846Z,32.60
2017-07-29T13:28:03.909Z,32.78
2017-07-29T13:30:33.329Z,33.19
2017-07-29T13:33:03.089Z,33.72
2017-07-29T13:35:32.515Z,33.83
2017-07-29T13:38:02.191Z,33.73
2017-07-29T13:40:32.352Z,33.47
2017-07-29T13:43:02.051Z,33.65
2017-07-29T13:45:29.787Z,33.79
2017-07-29T13:47:57.495Z,33.58
2017-07-29T13:50:25.335Z,33.06
2017-07-29T13:52:52.931Z,32.64
2017-07-29T13:55:20.759Z,32.63
2017-07-29T13:57:48.390Z,32.50
2017-07-29T14:00:16.008Z,32.51
2017-07-29T14:02:43.693Z,32.05
2017-07-29T14:05:11.299Z,31.99
2017-07-29T14:07:38.929Z,32.29
2017-07-29T14:10:06.612Z,32.34
2017-07-29T14:12:34.227Z,32.37
2017-07-29T14:15:01.833Z,32.16
2017-07-29T14:17:29.499Z,31.91
2017-07-29T14:19:57.542Z,32.15
2017-07-29T14:22:25.204Z,32.25
2017-07-29T14:24:52.876Z,32.35
2017-07-29T14:27:20.499Z,32.45
2017-07-29T14:29:48.096Z,32.45
2017-07-29T14:32:15.777Z,32.22
2017-07-29T14:34:43.395Z,32.20
2017-07-29T14:37:11.013Z,32.34
2017-07-29T14:39:38.666Z,32.18
2017-07-29T14:42:06.275Z,32.10
2017-07-29T14:44:33.885Z,32.14
2017-07-29T14:47:01.533Z,31.95
2017-07-29T14:49:29.135Z,32.13
2017-07-29T14:51:56.737Z,32.13
2017-07-29T14:54:24.398Z,32.19
2017-07-29T14:56:52.020Z,32.44
2017-07-29T14:59:19.681Z,32.63
2017-07-29T15:01:47.346Z,32.75
2017-07-29T15:04:14.963Z,32.67
2017-07-29T15:06:42.580Z,32.52
2017-07-29T15:09:10.261Z,32.17
2017-07-29T15:11:37.865Z,32.16
2017-07-29T15:14:05.551Z,32.04
2017-07-29T15:16:33.206Z,32.00
2017-07-29T15:19:00.851Z,32.00
2017-07-29T15:21:28.830Z,31.90
2017-07-29T15:23:56.521Z,31.83
2017-07-29T15:26:24.234Z,31.62
2017-07-29T15:28:51.855Z,31.53
2017-07-29T15:31:19.731Z,31.27
2017-07-29T15:33:47.555Z,31.35
2017-07-29T15:36:15.445Z,31.35
2017-07-29T15:38:43.500Z,31.27
2017-07-29T15:41:11.367Z,31.29
2017-07-29T15:43:39.249Z,31.29
2017-07-29T15:46:07.124Z,31.30
2017-07-29T15:48:34.784Z,31.25
2017-07-29T15:51:02.508Z,31.18
2017-07-29T15:53:30.320Z,31.18
2017-07-29T15:55:57.969Z,31.12
2017-07-29T15:58:25.963Z,31.06
2017-07-29T16:00:53.640Z,31.04
2017-07-29T16:03:21.447Z,31.00
2017-07-29T16:05:49.420Z,30.98
2017-07-29T16:08:17.357Z,30.93
2017-07-29T16:10:44.993Z,30.89
2017-07-29T16:13:12.634Z,30.88
2017-07-29T16:15:40.701Z,30.82
2017-07-29T16:18:08.545Z,30.77
2017-07-29T16:20:36.436Z,30.67
2017-07-29T16:23:04.502Z,30.58
2017-07-29T16:25:32.352Z,30.56
2017-07-29T16:28:00.095Z,30.58
2017-07-29T16:30:28.012Z,30.52
2017-07-29T16:32:55.829Z,30.49
2017-07-29T16:35:23.646Z,30.45
2017-07-29T16:37:51.563Z,30.36
2017-07-29T16:40:19.177Z,30.24
2017-07-29T16:42:47.050Z,30.13
2017-07-29T16:45:14.892Z,30.01
2017-07-29T16:47:42.833Z,29.89
2017-07-29T16:50:10.736Z,29.81
2017-07-29T16:52:38.602Z,29.70
2017-07-29T16:55:06.360Z,29.61
2017-07-29T16:57:33.962Z,29.49
2017-07-29T17:00:01.997Z,29.44
2017-07-29T17:02:29.736Z,29.36
2017-07-29T17:04:57.699Z,29.26
2017-07-29T17:07:25.366Z,29.09
2017-07-29T17:09:53.260Z,28.94
2017-07-29T17:12:20.982Z,28.74
2017-07-29T17:14:48.995Z,28.55
2017-07-29T17:17:16.841Z,28.43
2017-07-29T17:19:44.582Z,28.31
2017-07-29T17:22:12.595Z,28.12
2017-07-29T17:24:40.319Z,27.86
2017-07-29T17:27:08.124Z,27.70
2017-07-29T17:29:36.196Z,27.49
2017-07-29T17:32:04.170Z,27.28
2017-07-29T17:34:31.988Z,27.14
2017-07-29T17:37:00.001Z,26.86
2017-07-29T17:39:27.721Z,26.69
2017-07-29T17:41:55.688Z,26.47
2017-07-29T17:44:23.508Z,26.34
2017-07-29T17:46:51.324Z,26.20
2017-07-29T17:49:19.317Z,26.08
2017-07-29T17:51:47.184Z,25.86
2017-07-29T17:54:15.068Z,25.66
2017-07-29T17:56:42.791Z,25.52
2017-07-29T17:59:10.760Z,25.42
2017-07-29T18:01:38.664Z,25.37
2017-07-29T18:04:06.393Z,25.17
2017-07-29T18:06:34.398Z,25.02
2017-07-29T18:09:02.252Z,24.97
2017-07-29T18:11:30.137Z,24.90
2017-07-29T18:13:58.186Z,24.75
2017-07-29T18:16:26.075Z,24.65
2017-07-29T18:18:53.739Z,24.48
2017-07-29T18:21:21.762Z,24.29
2017-07-29T18:23:49.579Z,24.20
2017-07-29T18:26:17.544Z,24.13
2017-07-29T18:28:45.514Z,24.05
2017-07-29T18:31:13.332Z,24.00
2017-07-29T18:33:41.352Z,23.93
2017-07-29T18:36:09.414Z,23.84
2017-07-29T18:38:37.258Z,23.69
2017-07-29T18:41:05.155Z,23.54
2017-07-29T18:43:33.215Z,23.45
2017-07-29T18:46:00.958Z,23.33
2017-07-29T18:48:28.959Z,23.25
2017-07-29T18:50:57.032Z,23.09
2017-07-29T18:53:24.885Z,23.29
2017-07-29T18:55:52.767Z,23.36
2017-07-29T18:58:20.795Z,23.35
2017-07-29T19:00:48.702Z,23.46
2017-07-29T19:03:16.628Z,23.39
2017-07-29T19:05:44.438Z,23.32
2017-07-29T19:08:12.518Z,23.26
2017-07-29T19:10:40.356Z,23.24
2017-07-29T19:13:08.243Z,23.22
2017-07-29T19:15:35.966Z,23.24
2017-07-29T19:18:03.841Z,23.23
2017-07-29T19:20:31.825Z,23.16
2017-07-29T19:22:59.567Z,23.15
2017-07-29T19:25:27.435Z,23.16
2017-07-29T19:27:55.300Z,23.15
2017-07-29T19:30:23.310Z,23.12
2017-07-29T19:32:51.159Z,23.07
2017-07-29T19:35:19.104Z,22.98
2017-07-29T19:37:47.117Z,22.95
2017-07-29T19:40:14.836Z,22.92
2017-07-29T19:42:42.823Z,22.86
2017-07-29T19:45:10.696Z,22.79
2017-07-29T19:47:38.562Z,22.71
2017-07-29T19:50:06.452Z,22.66
2017-07-29T19:52:34.171Z,22.58
2017-07-29T19:55:02.140Z,22.55
2017-07-29T19:57:29.956Z,22.48
2017-07-29T19:59:57.920Z,22.45
2017-07-29T20:02:25.788Z,22.34
2017-07-29T20:04:53.756Z,22.25
2017-07-29T20:07:21.728Z,22.03
2017-07-29T20:09:49.441Z,21.95
2017-07-29T20:12:17.459Z,21.82
2017-07-29T20:14:45.326Z,21.82
2017-07-29T20:17:12.987Z,21.73
2017-07-29T20:19:41.013Z,21.71
2017-07-29T20:22:08.928Z,21.66
2017-07-29T20:24:36.671Z,21.61
2017-07-29T20:27:04.635Z,21.59
2017-07-29T20:29:32.576Z,21.57
2017-07-29T20:32:00.540Z,21.51
2017-07-29T20:34:28.309Z,21.46
2017-07-29T20:36:56.279Z,21.42
2017-07-29T20:39:23.999Z,21.41
2017-07-29T20:41:51.673Z,21.33
2017-07-29T20:44:19.284Z,21.36
2017-07-29T20:46:47.022Z,21.34
2017-07-29T20:49:14.691Z,21.26
2017-07-29T20:51:42.300Z,21.20
2017-07-29T20:54:09.917Z,21.17
2017-07-29T20:56:37.601Z,21.13
2017-07-29T20:59:05.224Z,21.02
2017-07-29T21:01:32.851Z,20.93
2017-07-29T21:04:00.739Z,20.90
2017-07-29T21:06:28.806Z,20.85
2017-07-29T21:08:56.748Z,20.83
2017-07-29T21:11:24.788Z,20.83
2017-07-29T21:13:52.400Z,20.77
2017-07-29T21:16:20.056Z,20.80
2017-07-29T21:18:47.869Z,20.77
2017-07-29T21:21:15.835Z,20.71
2017-07-29T21:23:43.756Z,20.62
2017-07-29T21:26:11.693Z,20.58
2017-07-29T21:28:39.662Z,20.47
2017-07-29T21:31:07.435Z,20.42
2017-07-29T21:33:35.428Z,20.46
2017-07-29T21:36:03.090Z,20.42
2017-07-29T21:38:30.802Z,20.40
2017-07-29T21:40:58.796Z,20.23
2017-07-29T21:43:26.663Z,20.12
2017-07-29T21:45:54.481Z,20.08
2017-07-29T21:48:22.427Z,20.07
2017-07-29T21:50:50.118Z,20.00
2017-07-29T21:53:17.750Z,19.89
2017-07-29T21:55:45.798Z,19.82
2017-07-29T21:58:13.690Z,19.75
2017-07-29T22:00:41.532Z,19.77
2017-07-29T22:03:09.434Z,19.71
2017-07-29T22:05:37.390Z,19.77
2017-07-29T22:08:05.436Z,19.88
2017-07-29T22:10:33.302Z,19.88
2017-07-29T22:13:01.018Z,19.93
2017-07-29T22:15:28.965Z,19.98
2017-07-29T22:17:57.034Z,20.00
2017-07-29T22:20:24.768Z,19.97
2017-07-29T22:22:52.770Z,19.88
2017-07-29T22:25:20.528Z,19.84
2017-07-29T22:27:48.369Z,19.69
2017-07-29T22:30:16.080Z,19.52
2017-07-29T22:32:44.029Z,19.44
2017-07-29T22:35:11.746Z,19.43
2017-07-29T22:37:39.558Z,19.35
2017-07-29T22:40:07.630Z,19.34
2017-07-29T22:42:35.497Z,19.27
2017-07-29T22:45:03.464Z,19.20
2017-07-29T22:47:31.239Z,19.35
2017-07-29T22:49:58.996Z,19.42
2017-07-29T22:52:26.939Z,19.38
2017-07-29T22:54:54.612Z,19.38
2017-07-29T22:57:22.348Z,19.20
2017-07-29T22:59:50.339Z,19.05
2017-07-29T23:02:18.156Z,19.10
2017-07-29T23:04:46.095Z,19.02
2017-07-29T23:07:13.942Z,18.91
2017-07-29T23:09:41.928Z,18.97
2017-07-29T23:12:09.902Z,19.02
2017-07-29T23:14:37.616Z,18.98
2017-07-29T23:17:05.633Z,18.82
2017-07-29T23:19:33.476Z,18.71
2017-07-29T23:22:01.217Z,18.66
2017-07-29T23:24:29.029Z,18.70
2017-07-29T23:26:56.794Z,18.75
2017-07-29T23:29:24.694Z,18.81
2017-07-29T23:31:52.630Z,18.68
2017-07-29T23:34:20.478Z,18.60
2017-07-29T23:36:48.270Z,18.55
2017-07-29T23:39:16.232Z,18.52
2017-07-29T23:41:43.956Z,18.49
2017-07-29T23:44:11.969Z,18.48
2017-07-29T23:46:39.856Z,18.51
2017-07-29T23:49:07.854Z,18.42
2017-07-29T23:51:35.773Z,18.34
2017-07-29T23:54:03.789Z,18.32
2017-07-29T23:56:31.499Z,18.42
2017-07-29T23:58:59.171Z,18.44
